createdAt,value
2023-03-11T00:01:10.474Z,25.96
2023-03-11T00:05:10.643Z,25.97
2023-03-11T00:09:10.723Z,25.97
2023-03-11T00:13:10.891Z,25.96
2023-03-11T00:17:11.084Z,25.95
2023-03-11T00:21:11.152Z,25.95
2023-03-11T00:25:11.304Z,25.95
2023-03-11T00:29:11.386Z,25.96
2023-03-11T00:33:11.375Z,25.91
2023-03-11T00:37:11.522Z,25.93
2023-03-11T00:41:11.534Z,25.93
2023-03-11T00:45:11.635Z,25.92
2023-03-11T00:49:11.968Z,25.93
2023-03-11T00:53:11.939Z,25.93
2023-03-11T00:57:11.935Z,25.93
2023-03-11T01:01:12.092Z,25.93
2023-03-11T01:05:12.200Z,25.92
2023-03-11T01:09:12.315Z,25.91
2023-03-11T01:13:12.336Z,25.93
2023-03-11T01:17:12.415Z,25.92
2023-03-11T01:21:12.384Z,25.93
2023-03-11T01:25:12.436Z,25.89
2023-03-11T01:29:12.498Z,25.92
2023-03-11T01:33:12.496Z,25.89
2023-03-11T01:37:12.550Z,25.91
2023-03-11T01:41:12.519Z,25.86
2023-03-11T01:45:12.538Z,25.86
2023-03-11T01:49:12.465Z,25.88
2023-03-11T01:53:12.496Z,25.88
2023-03-11T01:57:12.506Z,25.89
2023-03-11T02:01:12.560Z,25.88
2023-03-11T02:05:12.525Z,25.88
2023-03-11T02:09:12.493Z,25.88
2023-03-11T02:13:12.519Z,25.86
2023-03-11T02:17:12.469Z,25.86
2023-03-11T02:21:12.468Z,25.86
2023-03-11T02:25:12.461Z,25.85
2023-03-11T02:29:12.448Z,25.86
2023-03-11T02:33:12.416Z,25.86
2023-03-11T02:37:12.466Z,25.85
2023-03-11T02:41:12.330Z,25.84
2023-03-11T02:45:12.325Z,25.85
2023-03-11T02:49:12.352Z,25.82
2023-03-11T02:53:12.271Z,25.84
2023-03-11T02:57:12.302Z,25.82
2023-03-11T03:01:12.268Z,25.81
2023-03-11T03:05:12.233Z,25.84
2023-03-11T03:09:12.183Z,25.84
2023-03-11T03:13:12.203Z,25.82
2023-03-11T03:17:12.228Z,25.84
2023-03-11T03:21:12.132Z,25.82
2023-03-11T03:25:12.113Z,25.82
2023-03-11T03:29:12.104Z,25.81
2023-03-11T03:33:12.133Z,25.79
2023-03-11T03:37:12.118Z,25.81
2023-03-11T03:41:12.122Z,25.78
2023-03-11T03:45:12.112Z,25.81
2023-03-11T03:49:12.018Z,25.79
2023-03-11T03:53:12.044Z,25.76
2023-03-11T03:57:12.005Z,25.81
2023-03-11T04:01:12.014Z,25.81
2023-03-11T04:05:11.989Z,25.79
2023-03-11T04:09:11.978Z,25.81
2023-03-11T04:13:12.000Z,25.78
2023-03-11T04:17:11.938Z,25.76
2023-03-11T04:21:12.091Z,25.75
2023-03-11T04:25:11.876Z,25.76
2023-03-11T04:29:11.900Z,25.75
2023-03-11T04:33:12.015Z,25.75
2023-03-11T04:37:11.864Z,25.74
2023-03-11T04:41:11.881Z,25.74
2023-03-11T04:45:11.955Z,25.74
2023-03-11T04:49:11.884Z,25.72
2023-03-11T04:53:11.853Z,25.71
2023-03-11T04:57:11.875Z,25.72
2023-03-11T05:01:11.842Z,25.74
2023-03-11T05:05:11.825Z,25.72
2023-03-11T05:09:11.859Z,25.72
2023-03-11T05:13:11.809Z,25.71
2023-03-11T05:17:11.844Z,25.71
2023-03-11T05:21:11.847Z,25.71
2023-03-11T05:25:11.864Z,25.69
2023-03-11T05:29:11.893Z,25.72
2023-03-11T05:33:11.938Z,25.69
2023-03-11T05:37:11.882Z,25.69
2023-03-11T05:41:11.878Z,25.69
2023-03-11T05:45:12.045Z,25.69
2023-03-11T05:49:11.925Z,25.69
2023-03-11T05:53:12.136Z,25.68
2023-03-11T05:57:11.982Z,25.71
2023-03-11T06:01:11.946Z,25.69
2023-03-11T06:05:13.717Z,25.67
2023-03-11T06:09:11.955Z,25.68
2023-03-11T06:13:11.987Z,25.69
2023-03-11T06:17:12.019Z,25.69
2023-03-11T06:21:12.030Z,25.68
2023-03-11T06:25:12.049Z,25.68
2023-03-11T06:29:12.095Z,25.68
2023-03-11T06:33:12.167Z,25.69
2023-03-11T06:37:12.164Z,25.68
2023-03-11T06:41:12.266Z,25.68
2023-03-11T06:45:12.290Z,25.71
2023-03-11T06:49:12.317Z,25.72
2023-03-11T06:53:12.343Z,25.67
2023-03-11T06:57:12.369Z,25.69
2023-03-11T07:01:12.494Z,25.68
2023-03-11T07:05:12.464Z,25.72
2023-03-11T07:09:12.576Z,25.74
2023-03-11T07:13:12.523Z,25.75
2023-03-11T07:17:12.590Z,25.75
2023-03-11T07:21:12.574Z,25.78
2023-03-11T07:25:12.607Z,25.78
2023-03-11T07:29:12.607Z,25.79
2023-03-11T07:33:12.614Z,25.78
2023-03-11T07:37:12.598Z,25.76
2023-03-11T07:41:12.577Z,25.76
2023-03-11T07:45:12.665Z,25.79
2023-03-11T07:49:12.643Z,25.79
2023-03-11T07:53:12.613Z,25.81
2023-03-11T07:57:12.589Z,25.82
2023-03-11T08:01:12.599Z,25.84
2023-03-11T08:05:12.557Z,25.84
2023-03-11T08:09:12.564Z,25.85
2023-03-11T08:13:12.537Z,25.84
2023-03-11T08:17:12.511Z,25.85
2023-03-11T08:21:12.492Z,25.85
2023-03-11T08:25:12.465Z,25.85
2023-03-11T08:29:12.432Z,25.85
2023-03-11T08:33:12.434Z,25.85
2023-03-11T08:37:12.382Z,25.88
2023-03-11T08:41:12.383Z,25.91
2023-03-11T08:45:12.330Z,25.92
2023-03-11T08:49:12.413Z,25.95
2023-03-11T08:53:12.387Z,25.96
2023-03-11T08:57:12.593Z,25.97
2023-03-11T09:01:12.746Z,25.97
2023-03-11T09:05:12.869Z,25.97
2023-03-11T09:09:13.084Z,25.99
2023-03-11T09:13:13.137Z,25.99
2023-03-11T09:17:13.264Z,26.00
2023-03-11T09:21:13.695Z,26.02
2023-03-11T09:25:13.679Z,26.03
2023-03-11T09:29:13.853Z,26.06
2023-03-11T09:33:13.982Z,26.07
2023-03-11T09:37:14.261Z,26.07
2023-03-11T09:41:14.131Z,26.09
2023-03-11T09:45:14.117Z,26.13
2023-03-11T09:49:14.084Z,26.09
2023-03-11T09:53:14.093Z,26.10
2023-03-11T09:57:13.993Z,26.15
2023-03-11T10:01:13.956Z,26.13
2023-03-11T10:05:14.182Z,26.16
2023-03-11T10:09:13.913Z,26.19
2023-03-11T10:13:13.843Z,26.20
2023-03-11T10:17:13.827Z,26.25
2023-03-11T10:21:13.838Z,26.25
2023-03-11T10:25:13.985Z,26.27
2023-03-11T10:29:14.147Z,26.27
2023-03-11T10:33:14.380Z,26.32
2023-03-11T10:37:14.553Z,26.32
2023-03-11T10:41:14.747Z,26.34
2023-03-11T10:45:14.939Z,26.36
2023-03-11T10:49:15.108Z,26.33
2023-03-11T10:53:15.281Z,26.37
2023-03-11T10:57:15.522Z,26.36
2023-03-11T11:01:15.844Z,26.34
2023-03-11T11:05:15.951Z,26.36
2023-03-11T11:09:15.922Z,26.34
2023-03-11T11:13:15.893Z,26.37
2023-03-11T11:17:15.870Z,26.36
2023-03-11T11:21:15.802Z,26.39
2023-03-11T11:25:15.830Z,26.39
2023-03-11T11:29:15.718Z,26.43
2023-03-11T11:33:15.668Z,26.43
2023-03-11T11:37:15.640Z,26.46
2023-03-11T11:41:15.614Z,26.43
2023-03-11T11:45:15.602Z,26.46
2023-03-11T11:49:15.582Z,26.48
2023-03-11T11:53:15.553Z,26.48
2023-03-11T11:57:15.531Z,26.53
2023-03-11T12:01:15.510Z,26.51
2023-03-11T12:05:15.487Z,26.54
2023-03-11T12:09:15.384Z,26.57
2023-03-11T12:13:15.385Z,26.57
2023-03-11T12:17:15.769Z,26.56
2023-03-11T12:21:15.262Z,26.58
2023-03-11T12:25:15.239Z,26.58
2023-03-11T12:29:16.170Z,26.60
2023-03-11T12:33:15.496Z,26.61
2023-03-11T12:37:15.650Z,26.63
2023-03-11T12:41:15.815Z,26.64
2023-03-11T12:45:16.052Z,26.65
2023-03-11T12:49:16.184Z,26.71
2023-03-11T12:53:16.316Z,26.70
2023-03-11T12:57:16.506Z,26.74
2023-03-11T13:01:16.679Z,26.74
2023-03-11T13:05:16.863Z,26.75
2023-03-11T13:09:17.054Z,26.77
2023-03-11T13:13:17.173Z,26.78
2023-03-11T13:17:17.299Z,26.80
2023-03-11T13:21:17.427Z,26.83
2023-03-11T13:25:17.557Z,26.88
2023-03-11T13:29:17.688Z,26.93
2023-03-11T13:33:17.734Z,26.97
2023-03-11T13:37:17.808Z,26.99
2023-03-11T13:41:17.874Z,27.05
2023-03-11T13:45:17.915Z,27.06
2023-03-11T13:49:17.922Z,27.14
2023-03-11T13:53:18.022Z,27.15
2023-03-11T13:57:17.877Z,27.22
2023-03-11T14:01:18.048Z,27.29
2023-03-11T14:05:18.157Z,27.36
2023-03-11T14:09:18.138Z,27.45
2023-03-11T14:13:18.089Z,27.53
2023-03-11T14:17:18.087Z,27.59
2023-03-11T14:21:17.991Z,27.66
2023-03-11T14:25:17.966Z,27.73
2023-03-11T14:29:17.946Z,27.83
2023-03-11T14:33:17.866Z,27.83
2023-03-11T14:37:17.836Z,27.89
2023-03-11T14:41:17.822Z,27.94
2023-03-11T14:45:17.858Z,27.99
2023-03-11T14:49:17.710Z,28.05
2023-03-11T14:53:17.711Z,28.11
2023-03-11T14:57:17.678Z,28.18
2023-03-11T15:01:17.621Z,28.27
2023-03-11T15:05:17.821Z,28.44
2023-03-11T15:09:17.732Z,28.52
2023-03-11T15:13:17.731Z,28.58
2023-03-11T15:17:33.971Z,28.69
2023-03-11T15:21:18.647Z,28.73
2023-03-11T15:25:17.633Z,30.12
2023-03-11T15:29:17.573Z,30.86
2023-03-11T15:33:17.609Z,33.76
2023-03-11T15:37:17.728Z,32.51
2023-03-11T15:41:17.770Z,32.14
2023-03-11T15:45:17.933Z,33.36
2023-03-11T15:49:18.084Z,33.30
2023-03-11T15:53:18.200Z,32.02
2023-03-11T15:57:18.334Z,30.93
2023-03-11T16:01:18.409Z,30.09
2023-03-11T16:05:18.691Z,29.54
2023-03-11T16:09:18.553Z,29.11
2023-03-11T16:13:18.585Z,28.82
2023-03-11T16:17:18.521Z,28.55
2023-03-11T16:21:18.492Z,28.37
2023-03-11T16:25:18.412Z,28.21
2023-03-11T16:29:19.827Z,28.10
2023-03-11T16:33:18.372Z,28.01
2023-03-11T16:37:18.353Z,27.94
2023-03-11T16:41:18.285Z,27.86
2023-03-11T16:45:18.259Z,27.82
2023-03-11T16:49:18.243Z,27.79
2023-03-11T16:53:18.216Z,27.74
2023-03-11T16:57:18.346Z,27.72
2023-03-11T17:01:18.543Z,27.69
2023-03-11T17:05:18.749Z,27.66
2023-03-11T17:09:18.978Z,27.62
2023-03-11T17:13:19.253Z,27.59
2023-03-11T17:17:18.885Z,27.54
2023-03-11T17:21:18.859Z,27.52
2023-03-11T17:25:18.827Z,27.49
2023-03-11T17:29:18.817Z,27.46
2023-03-11T17:33:18.764Z,27.42
2023-03-11T17:37:18.715Z,27.38
2023-03-11T17:41:18.725Z,27.36
2023-03-11T17:45:18.649Z,27.33
2023-03-11T17:49:18.567Z,27.28
2023-03-11T17:53:18.552Z,27.25
2023-03-11T17:57:18.507Z,27.18
2023-03-11T18:01:18.620Z,27.14
2023-03-11T18:05:18.855Z,27.08
2023-03-11T18:09:18.427Z,27.02
2023-03-11T18:13:18.407Z,26.99
2023-03-11T18:17:18.727Z,26.98
2023-03-11T18:21:18.383Z,26.94
2023-03-11T18:25:18.416Z,26.93
2023-03-11T18:29:19.084Z,26.91
2023-03-11T18:33:18.436Z,26.93
2023-03-11T18:37:33.388Z,26.91
2023-03-11T18:41:18.394Z,26.90
2023-03-11T18:45:18.448Z,26.87
2023-03-11T18:49:18.391Z,26.85
2023-03-11T18:53:18.305Z,26.84
2023-03-11T18:57:18.268Z,26.81
2023-03-11T19:01:18.269Z,26.78
2023-03-11T19:05:18.253Z,26.77
2023-03-11T19:09:18.193Z,26.75
2023-03-11T19:13:18.170Z,26.73
2023-03-11T19:17:18.161Z,26.71
2023-03-11T19:21:18.086Z,26.73
2023-03-11T19:25:18.406Z,26.71
2023-03-11T19:29:17.939Z,26.70
2023-03-11T19:33:17.935Z,26.67
2023-03-11T19:37:17.935Z,26.65
2023-03-11T19:41:17.856Z,26.65
2023-03-11T19:45:17.851Z,26.63
2023-03-11T19:49:17.777Z,26.61
2023-03-11T19:53:17.761Z,26.60
2023-03-11T19:57:17.786Z,26.58
2023-03-11T20:01:17.822Z,26.58
2023-03-11T20:05:18.004Z,26.56
2023-03-11T20:09:18.161Z,26.56
2023-03-11T20:13:18.255Z,26.54
2023-03-11T20:17:18.441Z,26.57
2023-03-11T20:21:18.574Z,26.54
2023-03-11T20:25:18.711Z,26.58
2023-03-11T20:29:18.964Z,26.56
2023-03-11T20:33:19.142Z,26.54
2023-03-11T20:37:19.396Z,26.51
2023-03-11T20:41:19.487Z,26.48
2023-03-11T20:45:19.771Z,26.47
2023-03-11T20:49:20.000Z,26.50
2023-03-11T20:53:20.098Z,26.47
2023-03-11T20:57:20.321Z,26.48
2023-03-11T21:01:20.553Z,26.47
2023-03-11T21:05:20.631Z,26.46
2023-03-11T21:09:20.799Z,26.46
2023-03-11T21:13:20.881Z,26.43
2023-03-11T21:17:21.093Z,26.43
2023-03-11T21:21:21.064Z,26.43
2023-03-11T21:25:21.009Z,26.39
2023-03-11T21:29:20.983Z,26.40
2023-03-11T21:33:21.016Z,26.40
2023-03-11T21:37:20.837Z,26.39
2023-03-11T21:41:20.878Z,26.40
2023-03-11T21:45:20.838Z,26.36
2023-03-11T21:49:20.740Z,26.37
2023-03-11T21:53:20.728Z,26.34
2023-03-11T21:57:20.618Z,26.34
2023-03-11T22:01:20.720Z,26.32
2023-03-11T22:05:20.788Z,26.32
2023-03-11T22:09:20.582Z,26.30
2023-03-11T22:13:20.540Z,26.27
2023-03-11T22:17:20.533Z,26.29
2023-03-11T22:21:20.472Z,26.29
2023-03-11T22:25:20.356Z,26.27
2023-03-11T22:29:20.539Z,26.27
2023-03-11T22:33:20.345Z,26.26
2023-03-11T22:37:20.347Z,26.23
2023-03-11T22:41:20.547Z,26.25
2023-03-11T22:45:20.737Z,26.23
2023-03-11T22:49:20.883Z,26.26
2023-03-11T22:53:21.002Z,26.22
2023-03-11T22:57:21.249Z,26.19
2023-03-11T23:01:21.383Z,26.20
2023-03-11T23:05:21.627Z,26.17
2023-03-11T23:09:21.932Z,26.19
2023-03-11T23:13:21.924Z,26.16
2023-03-11T23:17:22.095Z,26.20
2023-03-11T23:21:22.237Z,26.19
2023-03-11T23:25:22.346Z,26.17
2023-03-11T23:29:22.518Z,26.15
2023-03-11T23:33:23.029Z,26.13
2023-03-11T23:37:22.805Z,26.13
2023-03-11T23:41:22.955Z,26.10
2023-03-11T23:45:23.109Z,26.13
2023-03-11T23:49:23.233Z,26.09
2023-03-11T23:53:23.423Z,26.12
2023-03-11T23:57:23.594Z,26.10
